sensor_id;sensor_type;location;lat;lon;timestamp;P1;durP1;ratioP1;P2;durP2;ratioP2
23169;SDS011;11753;43.144;24.714;2022-10-17T00:00:43;14.25;;;8.60;;
23169;SDS011;11753;43.144;24.714;2022-10-17T00:01:44;11.38;;;8.05;;
23169;SDS011;11753;43.144;24.714;2022-10-17T00:02:45;12.10;;;8.57;;
23169;SDS011;11753;43.144;24.714;2022-10-17T00:03:46;13.80;;;9.20;;
23169;SDS011;11753;43.144;24.714;2022-10-17T00:04:47;13.60;;;8.07;;
23169;SDS011;11753;43.144;24.714;2022-10-17T00:05:48;15.38;;;7.97;;
23169;SDS011;11753;43.144;24.714;2022-10-17T00:06:49;16.70;;;9.10;;
23169;SDS011;11753;43.144;24.714;2022-10-17T00:07:50;11.07;;;7.20;;
23169;SDS011;11753;43.144;24.714;2022-10-17T00:08:52;13.32;;;8.90;;
23169;SDS011;11753;43.144;24.714;2022-10-17T00:09:53;11.52;;;8.60;;
23169;SDS011;11753;43.144;24.714;2022-10-17T00:10:55;12.13;;;9.18;;
23169;SDS011;11753;43.144;24.714;2022-10-17T00:11:58;11.43;;;8.50;;
23169;SDS011;11753;43.144;24.714;2022-10-17T00:12:59;14.50;;;8.75;;
23169;SDS011;11753;43.144;24.714;2022-10-17T00:14:00;12.15;;;8.82;;
23169;SDS011;11753;43.144;24.714;2022-10-17T00:15:03;11.27;;;8.13;;
23169;SDS011;11753;43.144;24.714;2022-10-17T00:16:06;10.52;;;8.05;;
23169;SDS011;11753;43.144;24.714;2022-10-17T00:17:07;13.73;;;9.45;;
23169;SDS011;11753;43.144;24.714;2022-10-17T00:18:08;10.38;;;8.07;;
23169;SDS011;11753;43.144;24.714;2022-10-17T00:19:09;13.70;;;9.30;;
23169;SDS011;11753;43.144;24.714;2022-10-17T00:20:10;11.40;;;8.35;;
23169;SDS011;11753;43.144;24.714;2022-10-17T00:21:15;10.75;;;8.00;;
23169;SDS011;11753;43.144;24.714;2022-10-17T00:22:17;10.65;;;7.68;;
23169;SDS011;11753;43.144;24.714;2022-10-17T00:23:18;14.38;;;8.98;;
23169;SDS011;11753;43.144;24.714;2022-10-17T00:24:19;11.43;;;7.78;;
23169;SDS011;11753;43.144;24.714;2022-10-17T00:25:20;13.45;;;8.45;;
23169;SDS011;11753;43.144;24.714;2022-10-17T00:26:21;13.55;;;8.40;;
23169;SDS011;11753;43.144;24.714;2022-10-17T00:27:22;14.13;;;7.63;;
23169;SDS011;11753;43.144;24.714;2022-10-17T00:28:23;14.38;;;7.93;;
23169;SDS011;11753;43.144;24.714;2022-10-17T00:29:24;11.90;;;8.00;;
23169;SDS011;11753;43.144;24.714;2022-10-17T00:30:25;11.30;;;8.27;;
23169;SDS011;11753;43.144;24.714;2022-10-17T00:31:26;10.15;;;7.57;;
23169;SDS011;11753;43.144;24.714;2022-10-17T00:32:27;12.85;;;7.80;;
23169;SDS011;11753;43.144;24.714;2022-10-17T00:33:28;11.30;;;7.57;;
23169;SDS011;11753;43.144;24.714;2022-10-17T00:34:30;11.25;;;7.68;;
23169;SDS011;11753;43.144;24.714;2022-10-17T00:35:31;14.02;;;8.68;;
23169;SDS011;11753;43.144;24.714;2022-10-17T00:36:32;14.30;;;9.30;;
23169;SDS011;11753;43.144;24.714;2022-10-17T00:37:34;13.18;;;8.25;;
23169;SDS011;11753;43.144;24.714;2022-10-17T00:38:35;11.13;;;8.13;;
23169;SDS011;11753;43.144;24.714;2022-10-17T00:39:39;12.88;;;8.07;;
23169;SDS011;11753;43.144;24.714;2022-10-17T00:40:40;12.98;;;7.50;;
23169;SDS011;11753;43.144;24.714;2022-10-17T00:41:41;10.98;;;7.88;;
23169;SDS011;11753;43.144;24.714;2022-10-17T00:42:42;12.38;;;8.48;;
23169;SDS011;11753;43.144;24.714;2022-10-17T00:44:02;15.35;;;8.40;;
23169;SDS011;11753;43.144;24.714;2022-10-17T00:45:07;11.88;;;8.00;;
23169;SDS011;11753;43.144;24.714;2022-10-17T00:46:27;13.73;;;8.50;;
23169;SDS011;11753;43.144;24.714;2022-10-17T00:47:32;13.10;;;8.93;;
23169;SDS011;11753;43.144;24.714;2022-10-17T00:48:35;12.27;;;8.43;;
23169;SDS011;11753;43.144;24.714;2022-10-17T00:49:36;10.93;;;7.63;;
23169;SDS011;11753;43.144;24.714;2022-10-17T00:50:39;11.88;;;8.13;;
23169;SDS011;11753;43.144;24.714;2022-10-17T00:51:49;10.48;;;7.93;;
23169;SDS011;11753;43.144;24.714;2022-10-17T00:52:53;13.57;;;7.95;;
23169;SDS011;11753;43.144;24.714;2022-10-17T00:54:00;10.88;;;7.88;;
23169;SDS011;11753;43.144;24.714;2022-10-17T00:56:11;11.63;;;8.20;;
23169;SDS011;11753;43.144;24.714;2022-10-17T00:57:12;12.88;;;8.45;;
23169;SDS011;11753;43.144;24.714;2022-10-17T00:58:15;13.10;;;8.38;;
23169;SDS011;11753;43.144;24.714;2022-10-17T00:59:17;11.77;;;7.95;;
23169;SDS011;11753;43.144;24.714;2022-10-17T01:00:21;13.40;;;8.25;;
23169;SDS011;11753;43.144;24.714;2022-10-17T01:01:23;10.02;;;7.63;;
23169;SDS011;11753;43.144;24.714;2022-10-17T01:02:24;12.70;;;8.68;;
23169;SDS011;11753;43.144;24.714;2022-10-17T01:03:25;11.55;;;7.95;;
23169;SDS011;11753;43.144;24.714;2022-10-17T01:04:26;11.95;;;8.35;;
23169;SDS011;11753;43.144;24.714;2022-10-17T01:05:27;11.85;;;8.60;;
23169;SDS011;11753;43.144;24.714;2022-10-17T01:06:29;12.82;;;8.50;;
23169;SDS011;11753;43.144;24.714;2022-10-17T01:07:30;12.18;;;8.50;;
23169;SDS011;11753;43.144;24.714;2022-10-17T01:08:31;13.40;;;7.95;;
23169;SDS011;11753;43.144;24.714;2022-10-17T01:09:32;11.95;;;8.82;;
23169;SDS011;11753;43.144;24.714;2022-10-17T01:11:10;12.10;;;8.10;;
23169;SDS011;11753;43.144;24.714;2022-10-17T01:12:12;12.68;;;7.78;;
23169;SDS011;11753;43.144;24.714;2022-10-17T01:13:27;11.65;;;8.00;;
23169;SDS011;11753;43.144;24.714;2022-10-17T01:18:28;12.52;;;8.70;;
23169;SDS011;11753;43.144;24.714;2022-10-17T01:20:08;11.95;;;8.43;;
23169;SDS011;11753;43.144;24.714;2022-10-17T01:21:24;11.02;;;7.72;;
23169;SDS011;11753;43.144;24.714;2022-10-17T01:22:45;12.80;;;7.90;;
23169;SDS011;11753;43.144;24.714;2022-10-17T01:25:16;15.88;;;8.35;;
23169;SDS011;11753;43.144;24.714;2022-10-17T01:31:24;10.57;;;7.57;;
23169;SDS011;11753;43.144;24.714;2022-10-17T01:35:04;13.57;;;8.13;;
23169;SDS011;11753;43.144;24.714;2022-10-17T01:36:18;11.75;;;8.20;;
23169;SDS011;11753;43.144;24.714;2022-10-17T01:37:40;9.82;;;7.38;;
23169;SDS011;11753;43.144;24.714;2022-10-17T01:39:07;10.95;;;7.90;;
23169;SDS011;11753;43.144;24.714;2022-10-17T01:42:07;11.40;;;7.95;;
23169;SDS011;11753;43.144;24.714;2022-10-17T01:43:36;13.57;;;8.65;;
23169;SDS011;11753;43.144;24.714;2022-10-17T01:46:46;9.75;;;7.50;;
23169;SDS011;11753;43.144;24.714;2022-10-17T01:47:51;11.25;;;7.60;;
23169;SDS011;11753;43.144;24.714;2022-10-17T01:48:54;12.55;;;8.45;;
23169;SDS011;11753;43.144;24.714;2022-10-17T01:50:09;11.55;;;8.13;;
23169;SDS011;11753;43.144;24.714;2022-10-17T01:51:20;11.57;;;8.00;;
23169;SDS011;11753;43.144;24.714;2022-10-17T01:52:28;10.10;;;6.72;;
23169;SDS011;11753;43.144;24.714;2022-10-17T01:54:43;10.77;;;7.63;;
23169;SDS011;11753;43.144;24.714;2022-10-17T01:55:48;11.38;;;7.45;;
23169;SDS011;11753;43.144;24.714;2022-10-17T01:56:54;10.70;;;7.80;;
23169;SDS011;11753;43.144;24.714;2022-10-17T01:58:08;11.13;;;6.95;;
23169;SDS011;11753;43.144;24.714;2022-10-17T01:59:21;12.75;;;7.35;;
23169;SDS011;11753;43.144;24.714;2022-10-17T02:00:26;12.85;;;8.07;;
23169;SDS011;11753;43.144;24.714;2022-10-17T02:01:29;9.20;;;7.05;;
23169;SDS011;11753;43.144;24.714;2022-10-17T02:02:31;10.27;;;6.85;;
23169;SDS011;11753;43.144;24.714;2022-10-17T02:03:32;10.45;;;7.97;;
23169;SDS011;11753;43.144;24.714;2022-10-17T02:04:34;10.13;;;7.03;;
23169;SDS011;11753;43.144;24.714;2022-10-17T02:05:39;10.73;;;7.50;;
23169;SDS011;11753;43.144;24.714;2022-10-17T02:06:42;10.90;;;7.10;;
23169;SDS011;11753;43.144;24.714;2022-10-17T02:07:43;13.73;;;7.80;;
23169;SDS011;11753;43.144;24.714;2022-10-17T02:08:44;9.23;;;6.97;;
23169;SDS011;11753;43.144;24.714;2022-10-17T02:09:47;9.20;;;7.07;;
23169;SDS011;11753;43.144;24.714;2022-10-17T02:12:15;9.48;;;6.78;;
23169;SDS011;11753;43.144;24.714;2022-10-17T02:15:07;9.90;;;7.60;;
23169;SDS011;11753;43.144;24.714;2022-10-17T02:17:51;9.88;;;7.43;;
23169;SDS011;11753;43.144;24.714;2022-10-17T02:23:10;8.77;;;6.75;;
23169;SDS011;11753;43.144;24.714;2022-10-17T02:24:27;10.02;;;7.28;;
23169;SDS011;11753;43.144;24.714;2022-10-17T02:27:05;11.90;;;7.53;;
23169;SDS011;11753;43.144;24.714;2022-10-17T02:30:12;10.82;;;6.57;;
23169;SDS011;11753;43.144;24.714;2022-10-17T02:31:24;10.82;;;7.38;;
23169;SDS011;11753;43.144;24.714;2022-10-17T02:34:16;10.05;;;7.32;;
23169;SDS011;11753;43.144;24.714;2022-10-17T02:35:21;8.82;;;6.80;;
23169;SDS011;11753;43.144;24.714;2022-10-17T02:37:26;16.70;;;7.63;;
23169;SDS011;11753;43.144;24.714;2022-10-17T02:37:59;12.10;;;7.80;;
23169;SDS011;11753;43.144;24.714;2022-10-17T02:39:02;10.48;;;7.55;;
23169;SDS011;11753;43.144;24.714;2022-10-17T02:40:04;9.50;;;7.20;;
23169;SDS011;11753;43.144;24.714;2022-10-17T02:41:09;12.48;;;7.40;;
23169;SDS011;11753;43.144;24.714;2022-10-17T02:42:13;13.05;;;7.90;;
23169;SDS011;11753;43.144;24.714;2022-10-17T02:43:15;9.40;;;6.80;;
23169;SDS011;11753;43.144;24.714;2022-10-17T02:44:16;10.48;;;7.70;;
23169;SDS011;11753;43.144;24.714;2022-10-17T02:45:19;11.13;;;7.40;;
23169;SDS011;11753;43.144;24.714;2022-10-17T02:46:24;12.05;;;6.90;;
23169;SDS011;11753;43.144;24.714;2022-10-17T02:48:01;10.43;;;7.30;;
23169;SDS011;11753;43.144;24.714;2022-10-17T02:53:29;9.23;;;6.88;;
23169;SDS011;11753;43.144;24.714;2022-10-17T02:55:52;10.60;;;7.72;;
23169;SDS011;11753;43.144;24.714;2022-10-17T02:57:01;8.48;;;6.20;;
23169;SDS011;11753;43.144;24.714;2022-10-17T02:58:27;12.38;;;7.38;;
23169;SDS011;11753;43.144;24.714;2022-10-17T02:59:33;10.10;;;7.18;;
23169;SDS011;11753;43.144;24.714;2022-10-17T03:00:36;11.48;;;7.45;;
23169;SDS011;11753;43.144;24.714;2022-10-17T03:01:40;10.70;;;7.60;;
23169;SDS011;11753;43.144;24.714;2022-10-17T03:02:45;11.13;;;7.22;;
23169;SDS011;11753;43.144;24.714;2022-10-17T03:03:48;12.38;;;7.35;;
23169;SDS011;11753;43.144;24.714;2022-10-17T03:04:49;12.15;;;7.25;;
23169;SDS011;11753;43.144;24.714;2022-10-17T03:05:50;13.18;;;7.65;;
23169;SDS011;11753;43.144;24.714;2022-10-17T03:06:52;10.75;;;7.38;;
23169;SDS011;11753;43.144;24.714;2022-10-17T03:07:53;9.95;;;7.15;;
23169;SDS011;11753;43.144;24.714;2022-10-17T03:08:55;10.80;;;7.47;;
23169;SDS011;11753;43.144;24.714;2022-10-17T03:09:56;12.73;;;8.00;;
23169;SDS011;11753;43.144;24.714;2022-10-17T03:10:57;10.43;;;7.20;;
23169;SDS011;11753;43.144;24.714;2022-10-17T03:11:58;10.98;;;7.20;;
23169;SDS011;11753;43.144;24.714;2022-10-17T03:12:59;11.18;;;7.32;;
23169;SDS011;11753;43.144;24.714;2022-10-17T03:14:00;11.05;;;6.80;;
23169;SDS011;11753;43.144;24.714;2022-10-17T03:15:04;12.48;;;7.07;;
23169;SDS011;11753;43.144;24.714;2022-10-17T03:16:05;10.25;;;7.75;;
23169;SDS011;11753;43.144;24.714;2022-10-17T03:17:07;10.73;;;7.18;;
23169;SDS011;11753;43.144;24.714;2022-10-17T03:18:07;9.32;;;7.25;;
23169;SDS011;11753;43.144;24.714;2022-10-17T03:19:09;8.48;;;6.50;;
23169;SDS011;11753;43.144;24.714;2022-10-17T03:20:10;10.45;;;6.93;;
23169;SDS011;11753;43.144;24.714;2022-10-17T03:21:11;9.18;;;7.28;;
23169;SDS011;11753;43.144;24.714;2022-10-17T03:22:12;9.80;;;7.40;;
23169;SDS011;11753;43.144;24.714;2022-10-17T03:23:13;9.45;;;7.00;;
23169;SDS011;11753;43.144;24.714;2022-10-17T03:24:14;11.38;;;7.10;;
23169;SDS011;11753;43.144;24.714;2022-10-17T03:25:15;9.25;;;6.65;;
23169;SDS011;11753;43.144;24.714;2022-10-17T03:26:16;7.80;;;5.93;;
23169;SDS011;11753;43.144;24.714;2022-10-17T03:27:17;11.48;;;7.30;;
23169;SDS011;11753;43.144;24.714;2022-10-17T03:28:18;10.27;;;6.65;;
23169;SDS011;11753;43.144;24.714;2022-10-17T03:29:19;11.45;;;7.40;;
23169;SDS011;11753;43.144;24.714;2022-10-17T03:30:20;14.20;;;7.55;;
23169;SDS011;11753;43.144;24.714;2022-10-17T03:31:21;10.60;;;7.65;;
23169;SDS011;11753;43.144;24.714;2022-10-17T03:32:22;10.35;;;7.20;;
23169;SDS011;11753;43.144;24.714;2022-10-17T03:33:23;10.23;;;6.88;;
23169;SDS011;11753;43.144;24.714;2022-10-17T03:34:24;9.88;;;6.50;;
23169;SDS011;11753;43.144;24.714;2022-10-17T03:35:25;10.65;;;6.65;;
23169;SDS011;11753;43.144;24.714;2022-10-17T03:36:26;12.73;;;7.13;;
23169;SDS011;11753;43.144;24.714;2022-10-17T03:37:27;11.68;;;7.10;;
23169;SDS011;11753;43.144;24.714;2022-10-17T03:38:28;8.73;;;6.80;;
23169;SDS011;11753;43.144;24.714;2022-10-17T03:39:29;10.93;;;7.05;;
23169;SDS011;11753;43.144;24.714;2022-10-17T03:40:33;9.88;;;7.13;;
23169;SDS011;11753;43.144;24.714;2022-10-17T03:41:34;15.10;;;8.52;;
23169;SDS011;11753;43.144;24.714;2022-10-17T03:42:35;13.43;;;8.60;;
23169;SDS011;11753;43.144;24.714;2022-10-17T03:43:36;11.48;;;7.30;;
23169;SDS011;11753;43.144;24.714;2022-10-17T03:44:38;12.00;;;7.70;;
23169;SDS011;11753;43.144;24.714;2022-10-17T03:45:39;11.98;;;7.65;;
23169;SDS011;11753;43.144;24.714;2022-10-17T03:46:40;9.52;;;7.55;;
23169;SDS011;11753;43.144;24.714;2022-10-17T03:47:41;10.32;;;7.15;;
23169;SDS011;11753;43.144;24.714;2022-10-17T03:48:42;12.13;;;7.70;;
23169;SDS011;11753;43.144;24.714;2022-10-17T03:49:43;9.38;;;6.93;;
23169;SDS011;11753;43.144;24.714;2022-10-17T03:50:44;9.30;;;6.70;;
23169;SDS011;11753;43.144;24.714;2022-10-17T03:51:45;16.50;;;7.45;;
23169;SDS011;11753;43.144;24.714;2022-10-17T03:52:46;11.32;;;7.68;;
23169;SDS011;11753;43.144;24.714;2022-10-17T03:53:48;10.73;;;7.38;;
23169;SDS011;11753;43.144;24.714;2022-10-17T03:54:49;10.40;;;7.60;;
23169;SDS011;11753;43.144;24.714;2022-10-17T03:55:51;12.65;;;7.18;;
23169;SDS011;11753;43.144;24.714;2022-10-17T03:56:51;10.60;;;7.22;;
23169;SDS011;11753;43.144;24.714;2022-10-17T03:57:52;8.68;;;6.03;;
23169;SDS011;11753;43.144;24.714;2022-10-17T03:58:54;12.35;;;7.85;;
23169;SDS011;11753;43.144;24.714;2022-10-17T03:59:55;11.35;;;7.35;;
23169;SDS011;11753;43.144;24.714;2022-10-17T04:00:56;9.93;;;7.30;;
23169;SDS011;11753;43.144;24.714;2022-10-17T04:01:57;11.15;;;7.07;;
23169;SDS011;11753;43.144;24.714;2022-10-17T04:02:57;10.82;;;7.53;;
23169;SDS011;11753;43.144;24.714;2022-10-17T04:03:58;10.50;;;6.88;;
23169;SDS011;11753;43.144;24.714;2022-10-17T04:04:58;12.13;;;7.85;;
23169;SDS011;11753;43.144;24.714;2022-10-17T04:05:59;12.27;;;7.80;;
23169;SDS011;11753;43.144;24.714;2022-10-17T04:07:00;10.77;;;6.65;;
23169;SDS011;11753;43.144;24.714;2022-10-17T04:08:01;9.75;;;7.15;;
23169;SDS011;11753;43.144;24.714;2022-10-17T04:09:02;12.55;;;7.53;;
23169;SDS011;11753;43.144;24.714;2022-10-17T04:10:04;11.18;;;7.18;;
23169;SDS011;11753;43.144;24.714;2022-10-17T04:11:07;9.88;;;7.22;;
23169;SDS011;11753;43.144;24.714;2022-10-17T04:12:09;12.10;;;8.05;;
23169;SDS011;11753;43.144;24.714;2022-10-17T04:13:10;9.75;;;7.13;;
23169;SDS011;11753;43.144;24.714;2022-10-17T04:14:10;10.77;;;7.32;;
23169;SDS011;11753;43.144;24.714;2022-10-17T04:15:11;16.63;;;7.30;;
23169;SDS011;11753;43.144;24.714;2022-10-17T04:16:12;8.43;;;6.22;;
23169;SDS011;11753;43.144;24.714;2022-10-17T04:17:17;10.05;;;6.93;;
23169;SDS011;11753;43.144;24.714;2022-10-17T04:18:18;10.05;;;7.15;;
23169;SDS011;11753;43.144;24.714;2022-10-17T04:19:18;11.25;;;7.03;;
23169;SDS011;11753;43.144;24.714;2022-10-17T04:20:19;11.10;;;7.47;;
23169;SDS011;11753;43.144;24.714;2022-10-17T04:21:19;11.10;;;7.28;;
23169;SDS011;11753;43.144;24.714;2022-10-17T04:22:21;8.52;;;6.57;;
23169;SDS011;11753;43.144;24.714;2022-10-17T04:23:21;10.07;;;6.53;;
23169;SDS011;11753;43.144;24.714;2022-10-17T04:24:22;12.32;;;7.18;;
23169;SDS011;11753;43.144;24.714;2022-10-17T04:25:24;9.98;;;7.28;;
23169;SDS011;11753;43.144;24.714;2022-10-17T04:26:25;10.35;;;6.15;;
23169;SDS011;11753;43.144;24.714;2022-10-17T04:27:26;10.70;;;7.05;;
23169;SDS011;11753;43.144;24.714;2022-10-17T04:28:27;11.85;;;6.90;;
23169;SDS011;11753;43.144;24.714;2022-10-17T04:29:28;10.82;;;7.22;;
23169;SDS011;11753;43.144;24.714;2022-10-17T04:30:28;11.10;;;7.60;;
23169;SDS011;11753;43.144;24.714;2022-10-17T04:31:30;9.88;;;7.50;;
23169;SDS011;11753;43.144;24.714;2022-10-17T04:32:31;10.18;;;7.60;;
23169;SDS011;11753;43.144;24.714;2022-10-17T04:33:36;10.45;;;7.00;;
23169;SDS011;11753;43.144;24.714;2022-10-17T04:34:37;11.30;;;7.72;;
23169;SDS011;11753;43.144;24.714;2022-10-17T04:35:38;11.50;;;7.68;;
23169;SDS011;11753;43.144;24.714;2022-10-17T04:36:39;13.57;;;8.43;;
23169;SDS011;11753;43.144;24.714;2022-10-17T04:37:40;12.95;;;7.93;;
23169;SDS011;11753;43.144;24.714;2022-10-17T04:38:41;15.73;;;8.50;;
23169;SDS011;11753;43.144;24.714;2022-10-17T04:39:42;11.80;;;7.70;;
23169;SDS011;11753;43.144;24.714;2022-10-17T04:40:43;10.65;;;7.63;;
23169;SDS011;11753;43.144;24.714;2022-10-17T04:41:44;12.52;;;7.10;;
23169;SDS011;11753;43.144;24.714;2022-10-17T04:42:45;10.40;;;7.32;;
23169;SDS011;11753;43.144;24.714;2022-10-17T04:43:46;10.50;;;7.90;;
23169;SDS011;11753;43.144;24.714;2022-10-17T04:44:47;8.50;;;6.47;;
23169;SDS011;11753;43.144;24.714;2022-10-17T04:45:48;10.80;;;7.93;;
23169;SDS011;11753;43.144;24.714;2022-10-17T04:46:49;9.20;;;6.88;;
23169;SDS011;11753;43.144;24.714;2022-10-17T04:47:50;12.00;;;7.30;;
23169;SDS011;11753;43.144;24.714;2022-10-17T04:48:52;11.13;;;7.03;;
23169;SDS011;11753;43.144;24.714;2022-10-17T04:49:53;10.07;;;7.43;;
23169;SDS011;11753;43.144;24.714;2022-10-17T04:52:00;10.25;;;7.53;;
23169;SDS011;11753;43.144;24.714;2022-10-17T04:53:01;11.45;;;7.65;;
23169;SDS011;11753;43.144;24.714;2022-10-17T04:54:01;9.70;;;7.43;;
23169;SDS011;11753;43.144;24.714;2022-10-17T04:55:05;10.70;;;7.65;;
23169;SDS011;11753;43.144;24.714;2022-10-17T04:56:10;16.95;;;10.25;;
23169;SDS011;11753;43.144;24.714;2022-10-17T04:57:13;13.18;;;9.02;;
23169;SDS011;11753;43.144;24.714;2022-10-17T04:58:15;14.95;;;9.48;;
23169;SDS011;11753;43.144;24.714;2022-10-17T04:59:16;14.55;;;10.68;;
23169;SDS011;11753;43.144;24.714;2022-10-17T05:00:17;31.27;;;19.05;;
23169;SDS011;11753;43.144;24.714;2022-10-17T05:01:19;18.48;;;11.63;;
23169;SDS011;11753;43.144;24.714;2022-10-17T05:02:21;13.80;;;9.23;;
23169;SDS011;11753;43.144;24.714;2022-10-17T05:03:22;20.15;;;13.52;;
23169;SDS011;11753;43.144;24.714;2022-10-17T05:04:23;17.48;;;12.70;;
23169;SDS011;11753;43.144;24.714;2022-10-17T05:05:24;17.98;;;11.75;;
23169;SDS011;11753;43.144;24.714;2022-10-17T05:06:25;18.27;;;14.48;;
23169;SDS011;11753;43.144;24.714;2022-10-17T05:07:29;16.55;;;13.30;;
23169;SDS011;11753;43.144;24.714;2022-10-17T05:08:30;13.52;;;10.10;;
23169;SDS011;11753;43.144;24.714;2022-10-17T05:09:31;14.98;;;8.73;;
23169;SDS011;11753;43.144;24.714;2022-10-17T05:10:35;11.02;;;7.97;;
23169;SDS011;11753;43.144;24.714;2022-10-17T05:11:37;10.80;;;7.43;;
23169;SDS011;11753;43.144;24.714;2022-10-17T05:12:38;11.23;;;7.80;;
23169;SDS011;11753;43.144;24.714;2022-10-17T05:13:39;10.38;;;7.50;;
23169;SDS011;11753;43.144;24.714;2022-10-17T05:14:40;10.95;;;7.68;;
23169;SDS011;11753;43.144;24.714;2022-10-17T05:15:41;10.30;;;7.35;;
23169;SDS011;11753;43.144;24.714;2022-10-17T05:16:42;12.35;;;8.13;;
23169;SDS011;11753;43.144;24.714;2022-10-17T05:17:43;10.95;;;6.47;;
23169;SDS011;11753;43.144;24.714;2022-10-17T05:18:46;11.13;;;7.70;;
23169;SDS011;11753;43.144;24.714;2022-10-17T05:19:48;9.50;;;7.55;;
23169;SDS011;11753;43.144;24.714;2022-10-17T05:20:49;11.57;;;7.07;;
23169;SDS011;11753;43.144;24.714;2022-10-17T05:21:49;8.50;;;7.07;;
23169;SDS011;11753;43.144;24.714;2022-10-17T05:22:50;11.00;;;7.78;;
23169;SDS011;11753;43.144;24.714;2022-10-17T05:23:51;11.85;;;7.28;;
23169;SDS011;11753;43.144;24.714;2022-10-17T05:24:52;11.48;;;7.75;;
23169;SDS011;11753;43.144;24.714;2022-10-17T05:25:53;10.07;;;7.88;;
23169;SDS011;11753;43.144;24.714;2022-10-17T05:26:54;11.38;;;7.38;;
23169;SDS011;11753;43.144;24.714;2022-10-17T05:27:55;12.30;;;7.30;;
23169;SDS011;11753;43.144;24.714;2022-10-17T05:28:56;13.30;;;7.75;;
23169;SDS011;11753;43.144;24.714;2022-10-17T05:29:57;9.20;;;7.18;;
23169;SDS011;11753;43.144;24.714;2022-10-17T05:31:01;10.68;;;7.30;;
23169;SDS011;11753;43.144;24.714;2022-10-17T05:32:05;14.25;;;8.63;;
23169;SDS011;11753;43.144;24.714;2022-10-17T05:33:06;12.52;;;8.52;;
23169;SDS011;11753;43.144;24.714;2022-10-17T05:34:07;11.95;;;8.32;;
23169;SDS011;11753;43.144;24.714;2022-10-17T05:35:07;10.60;;;7.45;;
23169;SDS011;11753;43.144;24.714;2022-10-17T05:36:08;12.80;;;7.68;;
23169;SDS011;11753;43.144;24.714;2022-10-17T05:37:09;13.50;;;8.77;;
23169;SDS011;11753;43.144;24.714;2022-10-17T05:38:10;10.90;;;7.70;;
23169;SDS011;11753;43.144;24.714;2022-10-17T05:39:12;10.27;;;8.20;;
23169;SDS011;11753;43.144;24.714;2022-10-17T05:40:14;13.98;;;8.30;;
23169;SDS011;11753;43.144;24.714;2022-10-17T05:41:15;11.98;;;7.85;;
23169;SDS011;11753;43.144;24.714;2022-10-17T05:42:16;9.65;;;6.95;;
23169;SDS011;11753;43.144;24.714;2022-10-17T05:43:17;11.52;;;8.13;;
23169;SDS011;11753;43.144;24.714;2022-10-17T05:44:18;16.17;;;7.47;;
23169;SDS011;11753;43.144;24.714;2022-10-17T05:45:19;12.00;;;7.32;;
23169;SDS011;11753;43.144;24.714;2022-10-17T05:46:20;9.63;;;6.97;;
23169;SDS011;11753;43.144;24.714;2022-10-17T05:47:21;10.95;;;7.57;;
23169;SDS011;11753;43.144;24.714;2022-10-17T05:48:22;11.07;;;7.05;;
23169;SDS011;11753;43.144;24.714;2022-10-17T05:49:23;10.00;;;7.22;;
23169;SDS011;11753;43.144;24.714;2022-10-17T05:50:24;11.93;;;7.00;;
23169;SDS011;11753;43.144;24.714;2022-10-17T05:51:25;10.98;;;7.03;;
23169;SDS011;11753;43.144;24.714;2022-10-17T05:52:26;10.00;;;6.60;;
23169;SDS011;11753;43.144;24.714;2022-10-17T05:53:31;9.82;;;6.70;;
23169;SDS011;11753;43.144;24.714;2022-10-17T05:54:33;11.38;;;6.97;;
23169;SDS011;11753;43.144;24.714;2022-10-17T05:55:34;11.02;;;7.10;;
23169;SDS011;11753;43.144;24.714;2022-10-17T05:56:35;9.13;;;6.80;;
23169;SDS011;11753;43.144;24.714;2022-10-17T05:57:36;11.20;;;7.63;;
23169;SDS011;11753;43.144;24.714;2022-10-17T05:58:41;10.52;;;7.03;;
23169;SDS011;11753;43.144;24.714;2022-10-17T05:59:44;10.40;;;7.93;;
23169;SDS011;11753;43.144;24.714;2022-10-17T06:00:45;9.90;;;7.43;;
23169;SDS011;11753;43.144;24.714;2022-10-17T06:01:46;12.65;;;8.77;;
23169;SDS011;11753;43.144;24.714;2022-10-17T06:02:47;11.68;;;8.48;;
23169;SDS011;11753;43.144;24.714;2022-10-17T06:03:48;12.07;;;8.05;;
23169;SDS011;11753;43.144;24.714;2022-10-17T06:04:49;21.75;;;12.75;;
23169;SDS011;11753;43.144;24.714;2022-10-17T06:05:50;19.63;;;12.45;;
23169;SDS011;11753;43.144;24.714;2022-10-17T06:06:52;15.18;;;8.98;;
23169;SDS011;11753;43.144;24.714;2022-10-17T06:07:53;12.32;;;7.88;;
23169;SDS011;11753;43.144;24.714;2022-10-17T06:08:54;11.13;;;7.05;;
23169;SDS011;11753;43.144;24.714;2022-10-17T06:09:55;11.52;;;7.13;;
23169;SDS011;11753;43.144;24.714;2022-10-17T06:10:58;9.50;;;6.10;;
23169;SDS011;11753;43.144;24.714;2022-10-17T06:11:59;8.38;;;5.72;;
23169;SDS011;11753;43.144;24.714;2022-10-17T06:13:00;8.77;;;6.10;;
23169;SDS011;11753;43.144;24.714;2022-10-17T06:14:02;8.52;;;5.90;;
23169;SDS011;11753;43.144;24.714;2022-10-17T06:15:03;9.10;;;5.82;;
23169;SDS011;11753;43.144;24.714;2022-10-17T06:16:05;9.90;;;5.97;;
23169;SDS011;11753;43.144;24.714;2022-10-17T06:17:06;8.63;;;5.90;;
23169;SDS011;11753;43.144;24.714;2022-10-17T06:18:07;10.45;;;5.88;;
23169;SDS011;11753;43.144;24.714;2022-10-17T06:19:09;9.00;;;5.95;;
23169;SDS011;11753;43.144;24.714;2022-10-17T06:20:10;10.38;;;6.20;;
23169;SDS011;11753;43.144;24.714;2022-10-17T06:21:13;9.25;;;6.07;;
23169;SDS011;11753;43.144;24.714;2022-10-17T06:22:16;9.93;;;6.22;;
23169;SDS011;11753;43.144;24.714;2022-10-17T06:23:18;9.93;;;6.43;;
23169;SDS011;11753;43.144;24.714;2022-10-17T06:24:19;12.32;;;7.25;;
23169;SDS011;11753;43.144;24.714;2022-10-17T06:25:20;11.90;;;6.93;;
23169;SDS011;11753;43.144;24.714;2022-10-17T06:26:21;11.48;;;6.22;;
23169;SDS011;11753;43.144;24.714;2022-10-17T06:27:22;10.57;;;6.32;;
23169;SDS011;11753;43.144;24.714;2022-10-17T06:28:23;10.95;;;6.53;;
23169;SDS011;11753;43.144;24.714;2022-10-17T06:29:24;10.05;;;5.85;;
23169;SDS011;11753;43.144;24.714;2022-10-17T06:30:25;10.93;;;6.53;;
23169;SDS011;11753;43.144;24.714;2022-10-17T06:31:28;9.70;;;5.80;;
23169;SDS011;11753;43.144;24.714;2022-10-17T06:32:29;7.20;;;5.03;;
23169;SDS011;11753;43.144;24.714;2022-10-17T06:33:30;11.40;;;6.10;;
23169;SDS011;11753;43.144;24.714;2022-10-17T06:34:31;12.88;;;5.85;;
23169;SDS011;11753;43.144;24.714;2022-10-17T06:35:32;9.48;;;5.35;;
23169;SDS011;11753;43.144;24.714;2022-10-17T06:36:36;9.70;;;5.43;;
23169;SDS011;11753;43.144;24.714;2022-10-17T06:37:37;10.25;;;5.93;;
23169;SDS011;11753;43.144;24.714;2022-10-17T06:38:38;8.65;;;5.40;;
23169;SDS011;11753;43.144;24.714;2022-10-17T06:39:39;7.50;;;5.70;;
23169;SDS011;11753;43.144;24.714;2022-10-17T06:40:40;10.60;;;5.93;;
23169;SDS011;11753;43.144;24.714;2022-10-17T06:41:41;10.23;;;5.82;;
23169;SDS011;11753;43.144;24.714;2022-10-17T06:42:43;8.30;;;5.10;;
23169;SDS011;11753;43.144;24.714;2022-10-17T06:43:44;8.55;;;4.90;;
23169;SDS011;11753;43.144;24.714;2022-10-17T06:44:45;7.78;;;5.50;;
23169;SDS011;11753;43.144;24.714;2022-10-17T06:45:46;10.07;;;5.45;;
23169;SDS011;11753;43.144;24.714;2022-10-17T06:46:47;8.63;;;5.80;;
23169;SDS011;11753;43.144;24.714;2022-10-17T06:47:48;8.77;;;6.28;;
23169;SDS011;11753;43.144;24.714;2022-10-17T06:48:49;8.27;;;5.70;;
23169;SDS011;11753;43.144;24.714;2022-10-17T06:49:49;11.10;;;6.78;;